Time;durP1;ratioP1;P1;durP2;ratioP2;P2;SDS_P1;SDS_P2;PMS_P1;PMS_P2;Temp;Humidity;BMP_temperature;BMP_pressure;BME280_temperature;BME280_humidity;BME280_pressure;Samples;Min_cycle;Max_cycle;Signal;HPM_P1;HPM_P2
2023/07/09 00:02:05;;;;;;;9.48;8.50;;;;;;;;;;10399229;28;20027;-81
2023/07/09 00:07:08;;;;;;;10.23;9.20;;;;;;;;;;10396480;28;20516;-81
2023/07/09 00:12:13;;;;;;;10.10;9.00;;;;;;;;;;10392081;28;20048;-78
2023/07/09 00:17:27;;;;;;;9.57;8.57;;;;;;;;;;10390446;28;20771;-78
2023/07/09 00:22:28;;;;;;;9.38;8.43;;;;;;;;;;10392293;28;20086;-81
2023/07/09 00:27:30;;;;;;;9.57;8.57;;;;;;;;;;10390451;28;20119;-81
2023/07/09 00:32:34;;;;;;;9.93;8.93;;;;;;;;;;10394185;28;20044;-79
2023/07/09 00:37:35;;;;;;;10.77;9.32;;;;;;;;;;10395822;28;20073;-79
2023/07/09 00:42:35;;;;;;;11.88;9.32;;;;;;;;;;10391852;28;20033;-81
2023/07/09 00:47:46;;;;;;;10.98;9.52;;;;;;;;;;10387897;28;20043;-77
2023/07/09 00:52:50;;;;;;;10.68;9.18;;;;;;;;;;10390689;28;20044;-83
2023/07/09 00:57:56;;;;;;;10.48;9.20;;;;;;;;;;10392206;28;20117;-81
2023/07/09 01:02:58;;;;;;;10.57;9.50;;;;;;;;;;10388436;28;20037;-81
2023/07/09 01:07:58;;;;;;;10.75;9.65;;;;;;;;;;10391517;28;20692;-82
2023/07/09 01:13:00;;;;;;;10.95;9.85;;;;;;;;;;10385902;28;20037;-82
2023/07/09 01:18:01;;;;;;;10.48;9.45;;;;;;;;;;10379230;28;20068;-83
2023/07/09 01:23:02;;;;;;;9.63;8.55;;;;;;;;;;10415899;28;20091;-80
2023/07/09 01:28:02;;;;;;;11.63;9.47;;;;;;;;;;10397202;28;20034;-80
2023/07/09 01:33:06;;;;;;;10.77;9.67;;;;;;;;;;10389312;28;20057;-83
2023/07/09 01:38:08;;;;;;;11.00;9.90;;;;;;;;;;10397095;28;20081;-80
2023/07/09 01:43:09;;;;;;;12.02;10.38;;;;;;;;;;10401140;28;20060;-81
2023/07/09 01:48:15;;;;;;;11.48;10.00;;;;;;;;;;10402767;28;20033;-80
2023/07/09 01:53:19;;;;;;;10.27;9.20;;;;;;;;;;10395928;28;20052;-81
2023/07/09 01:58:24;;;;;;;11.15;9.60;;;;;;;;;;10399423;28;20103;-81
2023/07/09 02:03:26;;;;;;;9.77;8.77;;;;;;;;;;10392397;28;20079;-82
2023/07/09 02:08:26;;;;;;;10.88;9.75;;;;;;;;;;10396212;28;20037;-83
2023/07/09 02:13:27;;;;;;;10.70;9.67;;;;;;;;;;10396850;28;20037;-82
2023/07/09 02:18:29;;;;;;;11.43;9.90;;;;;;;;;;10393758;28;20604;-83
2023/07/09 02:23:29;;;;;;;10.13;9.10;;;;;;;;;;10397301;28;20069;-82
2023/07/09 02:28:30;;;;;;;11.57;10.38;;;;;;;;;;10397234;28;20053;-84
2023/07/09 02:33:32;;;;;;;11.10;9.63;;;;;;;;;;10400154;28;20053;-82
2023/07/09 02:38:34;;;;;;;12.20;10.82;;;;;;;;;;10402163;28;21092;-84
2023/07/09 02:43:35;;;;;;;10.50;9.40;;;;;;;;;;10391214;28;20045;-83
2023/07/09 02:48:35;;;;;;;10.48;9.48;;;;;;;;;;10417132;28;20113;-79
2023/07/09 02:53:36;;;;;;;12.00;10.80;;;;;;;;;;10404704;28;20034;-78
2023/07/09 02:58:36;;;;;;;12.20;11.00;;;;;;;;;;10409459;28;20327;-81
2023/07/09 03:03:37;;;;;;;10.50;9.40;;;;;;;;;;10392161;28;20115;-80
2023/07/09 03:08:37;;;;;;;12.17;10.90;;;;;;;;;;10390834;28;20041;-79
2023/07/09 03:13:37;;;;;;;11.48;10.30;;;;;;;;;;10385626;28;20302;-84
2023/07/09 03:18:38;;;;;;;10.85;9.75;;;;;;;;;;10403666;28;20065;-86
2023/07/09 03:23:39;;;;;;;11.63;10.52;;;;;;;;;;10397472;28;20064;-81
2023/07/09 03:28:39;;;;;;;9.32;8.40;;;;;;;;;;10402961;28;21184;-80
2023/07/09 03:33:40;;;;;;;11.18;9.77;;;;;;;;;;10408321;28;20986;-85
2023/07/09 03:38:42;;;;;;;11.70;10.37;;;;;;;;;;10417510;28;20049;-84
2023/07/09 03:43:43;;;;;;;10.60;9.60;;;;;;;;;;10408454;28;20315;-82
2023/07/09 03:48:43;;;;;;;11.30;10.20;;;;;;;;;;10392171;28;20045;-82
2023/07/09 03:53:43;;;;;;;11.60;9.90;;;;;;;;;;10401691;28;20060;-86
2023/07/09 03:58:44;;;;;;;11.43;10.20;;;;;;;;;;10397579;28;20045;-81
2023/07/09 04:03:45;;;;;;;11.25;10.15;;;;;;;;;;10392096;28;20041;-80
2023/07/09 04:08:46;;;;;;;11.50;10.07;;;;;;;;;;10395214;28;20037;-79
2023/07/09 04:13:46;;;;;;;11.23;10.13;;;;;;;;;;10395720;28;20041;-78
2023/07/09 04:18:47;;;;;;;10.80;9.43;;;;;;;;;;10403585;28;20059;-81
2023/07/09 04:23:47;;;;;;;11.70;10.60;;;;;;;;;;10394378;28;20327;-80
2023/07/09 04:28:47;;;;;;;10.43;9.40;;;;;;;;;;10389126;28;20044;-83
2023/07/09 04:33:48;;;;;;;10.77;9.40;;;;;;;;;;10395093;28;20033;-81
2023/07/09 04:38:49;;;;;;;10.75;9.45;;;;;;;;;;10394688;28;20523;-80
2023/07/09 04:43:49;;;;;;;11.80;9.60;;;;;;;;;;10389024;28;20029;-78
2023/07/09 04:48:49;;;;;;;9.70;8.70;;;;;;;;;;10386650;28;20032;-80
2023/07/09 04:53:51;;;;;;;9.20;8.23;;;;;;;;;;10390705;28;20534;-78
2023/07/09 04:58:53;;;;;;;12.20;8.43;;;;;;;;;;10389405;28;20046;-80
2023/07/09 05:03:54;;;;;;;9.43;8.32;;;;;;;;;;10389590;28;20600;-78
2023/07/09 05:08:54;;;;;;;10.05;8.57;;;;;;;;;;10393525;28;20040;-82
2023/07/09 05:13:56;;;;;;;8.13;7.40;;;;;;;;;;10396908;28;20033;-84
2023/07/09 05:18:57;;;;;;;8.97;8.07;;;;;;;;;;10402667;28;20067;-80
2023/07/09 05:23:57;;;;;;;8.80;7.90;;;;;;;;;;10402710;28;20109;-79
2023/07/09 05:29:01;;;;;;;9.53;7.73;;;;;;;;;;10396482;28;20884;-84
2023/07/09 05:34:02;;;;;;;9.57;7.63;;;;;;;;;;10401916;28;20045;-77
2023/07/09 05:39:02;;;;;;;8.52;7.57;;;;;;;;;;10400599;28;20045;-76
2023/07/09 05:44:03;;;;;;;9.65;8.65;;;;;;;;;;10400741;28;20599;-78
2023/07/09 05:49:05;;;;;;;10.43;8.85;;;;;;;;;;10398114;28;20035;-76
2023/07/09 05:54:05;;;;;;;11.07;10.00;;;;;;;;;;10402813;28;20034;-79
2023/07/09 05:59:06;;;;;;;9.65;8.65;;;;;;;;;;10399058;28;20049;-76
2023/07/09 06:04:06;;;;;;;10.17;8.03;;;;;;;;;;10391443;28;20048;-75
2023/07/09 06:09:08;;;;;;;12.53;9.23;;;;;;;;;;10382800;28;20038;-78
2023/07/09 06:14:09;;;;;;;10.95;9.10;;;;;;;;;;10389764;28;20052;-76
2023/07/09 06:19:10;;;;;;;11.85;9.23;;;;;;;;;;10388091;28;20045;-75
2023/07/09 06:24:10;;;;;;;10.03;7.73;;;;;;;;;;10396155;28;20136;-76
2023/07/09 06:29:11;;;;;;;9.25;7.85;;;;;;;;;;10396800;28;20560;-76
2023/07/09 06:34:11;;;;;;;8.87;7.97;;;;;;;;;;10399157;28;20033;-79
2023/07/09 06:39:12;;;;;;;9.40;8.23;;;;;;;;;;10401302;28;20049;-77
2023/07/09 06:44:12;;;;;;;8.80;7.43;;;;;;;;;;10412266;28;20394;-76
2023/07/09 06:49:13;;;;;;;11.10;8.95;;;;;;;;;;10397153;28;20522;-77
2023/07/09 06:54:15;;;;;;;10.98;8.10;;;;;;;;;;10395104;28;20037;-76
2023/07/09 06:59:15;;;;;;;11.38;8.18;;;;;;;;;;10396897;28;20084;-81
2023/07/09 07:04:16;;;;;;;8.15;7.35;;;;;;;;;;10400080;28;20037;-76
2023/07/09 07:09:16;;;;;;;8.95;8.05;;;;;;;;;;10399834;28;20033;-78
2023/07/09 07:14:16;;;;;;;9.33;7.57;;;;;;;;;;10401775;28;20783;-78
2023/07/09 07:19:17;;;;;;;7.73;6.93;;;;;;;;;;10396806;28;20053;-80
2023/07/09 07:24:18;;;;;;;9.57;7.40;;;;;;;;;;10407086;28;20807;-81
2023/07/09 07:29:18;;;;;;;9.93;7.43;;;;;;;;;;10409082;28;20029;-75
2023/07/09 07:34:19;;;;;;;8.57;7.53;;;;;;;;;;10429330;28;20021;-80
2023/07/09 07:39:19;;;;;;;9.37;7.50;;;;;;;;;;10440692;28;20041;-83
2023/07/09 07:44:20;;;;;;;9.93;7.32;;;;;;;;;;10412439;28;20291;-78
2023/07/09 07:49:20;;;;;;;7.35;6.65;;;;;;;;;;10405593;28;20087;-83
2023/07/09 07:54:20;;;;;;;12.15;10.68;;;;;;;;;;10401096;28;20029;-82
2023/07/09 07:59:21;;;;;;;11.30;9.20;;;;;;;;;;10428994;28;20045;-80
2023/07/09 08:04:24;;;;;;;8.45;6.85;;;;;;;;;;10417953;28;20633;-79
2023/07/09 08:09:24;;;;;;;11.07;6.68;;;;;;;;;;10417308;28;20106;-78
2023/07/09 08:14:25;;;;;;;11.47;6.87;;;;;;;;;;10412087;28;20029;-79
2023/07/09 08:19:25;;;;;;;10.03;5.93;;;;;;;;;;10421994;28;20063;-82
2023/07/09 08:24:26;;;;;;;7.13;6.13;;;;;;;;;;10401338;28;20041;-78
2023/07/09 08:29:26;;;;;;;7.43;5.60;;;;;;;;;;10402041;28;20082;-79
2023/07/09 08:34:26;;;;;;;8.03;6.00;;;;;;;;;;10398843;28;20446;-79
2023/07/09 08:39:27;;;;;;;7.10;5.77;;;;;;;;;;10400909;28;20057;-79
2023/07/09 08:44:42;;;;;;;7.97;5.67;;;;;;;;;;10399485;28;20521;-79
2023/07/09 08:49:46;;;;;;;6.32;5.43;;;;;;;;;;10399007;28;20654;-82
2023/07/09 08:54:47;;;;;;;7.05;5.35;;;;;;;;;;10411507;28;20695;-82
2023/07/09 08:59:49;;;;;;;6.07;5.18;;;;;;;;;;10413890;28;20061;-83
2023/07/09 09:04:49;;;;;;;6.90;5.28;;;;;;;;;;10402563;28;20061;-81
2023/07/09 09:09:56;;;;;;;7.23;5.40;;;;;;;;;;10399829;28;20469;-80
2023/07/09 09:14:58;;;;;;;7.47;6.38;;;;;;;;;;10399455;28;20117;-81
2023/07/09 09:20:01;;;;;;;6.88;4.90;;;;;;;;;;10403151;28;20041;-82
2023/07/09 09:25:07;;;;;;;6.63;5.45;;;;;;;;;;10402777;28;20049;-81
2023/07/09 09:30:13;;;;;;;5.38;4.43;;;;;;;;;;10404855;28;20025;-81
2023/07/09 09:35:15;;;;;;;6.28;4.28;;;;;;;;;;10410636;28;20103;-77
2023/07/09 09:40:24;;;;;;;7.72;4.45;;;;;;;;;;10428474;28;20033;-78
2023/07/09 09:45:36;;;;;;;5.15;4.18;;;;;;;;;;10447089;28;20018;-84
2023/07/09 09:50:40;;;;;;;5.60;4.07;;;;;;;;;;10467606;28;20120;-81
2023/07/09 09:55:40;;;;;;;6.63;3.85;;;;;;;;;;10447531;28;20167;-82
2023/07/09 10:00:47;;;;;;;4.70;3.70;;;;;;;;;;10411546;28;20494;-83
2023/07/09 10:05:56;;;;;;;6.30;3.95;;;;;;;;;;10408689;28;20039;-81
2023/07/09 10:11:05;;;;;;;6.20;3.97;;;;;;;;;;10421799;28;20038;-81
2023/07/09 10:21:23;;;;;;;6.82;4.60;;;;;;;;;;10475499;28;20082;-80
2023/07/09 10:26:41;;;;;;;6.30;4.07;;;;;;;;;;10451846;28;20173;-81
2023/07/09 10:31:46;;;;;;;5.72;3.65;;;;;;;;;;10452267;28;20045;-85
2023/07/09 10:37:18;;;;;;;3.78;3.40;;;;;;;;;;10467877;28;20037;-87
2023/07/09 10:42:23;;;;;;;4.63;3.80;;;;;;;;;;10408280;28;20052;-87
2023/07/09 10:47:35;;;;;;;5.07;3.70;;;;;;;;;;10460988;28;20520;-87
2023/07/09 10:52:44;;;;;;;5.45;3.90;;;;;;;;;;10471617;28;20033;-89
2023/07/09 10:57:56;;;;;;;6.10;4.05;;;;;;;;;;10611641;22;20056;-81
2023/07/09 11:03:11;;;;;;;5.57;3.92;;;;;;;;;;10589589;22;20100;-88
2023/07/09 11:08:17;;;;;;;5.70;3.75;;;;;;;;;;10523231;28;20185;-85
2023/07/09 11:13:23;;;;;;;4.00;3.60;;;;;;;;;;10464579;28;20044;-80
2023/07/09 11:18:24;;;;;;;11.60;9.88;;;;;;;;;;10455938;28;20646;-84
2023/07/09 11:23:36;;;;;;;4.65;3.70;;;;;;;;;;10411975;28;20068;-86
2023/07/09 11:28:47;;;;;;;5.55;3.70;;;;;;;;;;10443137;28;20049;-89
2023/07/09 11:33:49;;;;;;;4.70;3.80;;;;;;;;;;10453912;28;20028;-87
2023/07/09 11:38:51;;;;;;;4.32;3.70;;;;;;;;;;10465627;28;20047;-88
2023/07/09 11:43:51;;;;;;;5.10;3.23;;;;;;;;;;10445104;28;20036;-89
2023/07/09 11:48:54;;;;;;;4.78;4.22;;;;;;;;;;10451211;28;20315;-86
2023/07/09 11:53:55;;;;;;;5.32;3.75;;;;;;;;;;10474144;28;20043;-88
2023/07/09 11:58:58;;;;;;;5.05;3.80;;;;;;;;;;10495353;28;20032;-85
2023/07/09 12:03:59;;;;;;;6.70;3.83;;;;;;;;;;10496645;28;20041;-84
2023/07/09 12:09:00;;;;;;;6.97;3.97;;;;;;;;;;10486187;28;20060;-81
2023/07/09 12:14:02;;;;;;;4.68;3.63;;;;;;;;;;10492314;28;20071;-84
2023/07/09 12:19:03;;;;;;;4.22;3.58;;;;;;;;;;10483128;28;20146;-83
2023/07/09 12:24:15;;;;;;;4.83;3.17;;;;;;;;;;10473733;28;20564;-83
2023/07/09 12:29:15;;;;;;;3.78;3.33;;;;;;;;;;10474614;28;20038;-84
2023/07/09 12:34:16;;;;;;;5.00;3.60;;;;;;;;;;10462531;28;20047;-82
2023/07/09 12:39:22;;;;;;;5.70;4.03;;;;;;;;;;10489157;28;20025;-81
2023/07/09 12:44:23;;;;;;;5.15;3.85;;;;;;;;;;10523136;28;20013;-78
2023/07/09 12:49:24;;;;;;;4.35;3.40;;;;;;;;;;10519394;28;20024;-86
2023/07/09 12:54:24;;;;;;;5.47;3.80;;;;;;;;;;10482992;28;20227;-82
2023/07/09 12:59:26;;;;;;;4.43;3.40;;;;;;;;;;10490456;28;20469;-85
2023/07/09 13:04:37;;;;;;;5.43;3.85;;;;;;;;;;10455067;28;20299;-83
2023/07/09 13:09:47;;;;;;;5.03;3.33;;;;;;;;;;10444696;28;20048;-84
2023/07/09 13:14:53;;;;;;;5.85;3.70;;;;;;;;;;10432427;28;20036;-84
2023/07/09 13:19:55;;;;;;;4.75;3.42;;;;;;;;;;10428076;28;20036;-78
2023/07/09 13:24:55;;;;;;;5.75;3.67;;;;;;;;;;10447429;28;20041;-82
2023/07/09 13:29:56;;;;;;;4.53;3.40;;;;;;;;;;10452106;28;20045;-83
2023/07/09 13:34:56;;;;;;;4.57;3.40;;;;;;;;;;10456124;28;20047;-85
2023/07/09 13:39:59;;;;;;;6.13;3.73;;;;;;;;;;10481832;28;20047;-87
2023/07/09 13:45:00;;;;;;;4.25;3.45;;;;;;;;;;10503565;28;20123;-84
2023/07/09 13:50:03;;;;;;;4.50;3.23;;;;;;;;;;10480015;28;20049;-86
2023/07/09 13:55:04;;;;;;;4.53;3.22;;;;;;;;;;10492635;28;20040;-87
2023/07/09 14:00:05;;;;;;;4.15;3.60;;;;;;;;;;10474859;28;20572;-85
2023/07/09 14:05:07;;;;;;;5.50;3.60;;;;;;;;;;10482092;28;20051;-84
2023/07/09 14:10:11;;;;;;;6.00;3.33;;;;;;;;;;10475929;28;20049;-85
2023/07/09 14:15:18;;;;;;;5.53;3.50;;;;;;;;;;10477377;28;20727;-82
2023/07/09 14:20:20;;;;;;;7.22;4.10;;;;;;;;;;10476567;28;20035;-84
2023/07/09 14:25:23;;;;;;;5.25;3.30;;;;;;;;;;10476551;28;20036;-85
2023/07/09 14:30:24;;;;;;;6.82;3.67;;;;;;;;;;10484473;28;20037;-84
2023/07/09 14:35:26;;;;;;;5.10;3.50;;;;;;;;;;10499662;28;20784;-86
2023/07/09 14:40:27;;;;;;;6.22;4.05;;;;;;;;;;10499300;28;20597;-83
2023/07/09 14:45:31;;;;;;;7.20;3.93;;;;;;;;;;10470050;28;20050;-84
2023/07/09 14:50:32;;;;;;;4.55;3.35;;;;;;;;;;10473530;28;20166;-84
2023/07/09 14:55:32;;;;;;;5.00;3.50;;;;;;;;;;10465123;28;20045;-84
2023/07/09 15:00:36;;;;;;;4.95;3.40;;;;;;;;;;10443460;28;20071;-85
2023/07/09 15:05:37;;;;;;;5.50;3.90;;;;;;;;;;10473674;28;20037;-83
2023/07/09 15:10:38;;;;;;;5.18;3.58;;;;;;;;;;10448737;28;20516;-80
2023/07/09 15:15:38;;;;;;;5.20;3.73;;;;;;;;;;10473672;28;20033;-83
2023/07/09 15:20:39;;;;;;;7.97;3.83;;;;;;;;;;10471606;28;20059;-84
2023/07/09 15:25:39;;;;;;;5.68;3.58;;;;;;;;;;10465407;28;20302;-82
2023/07/09 15:30:41;;;;;;;5.32;3.67;;;;;;;;;;10472454;28;20036;-84
2023/07/09 15:35:43;;;;;;;5.28;3.30;;;;;;;;;;10474255;28;20037;-86
2023/07/09 15:40:43;;;;;;;6.78;4.00;;;;;;;;;;10493637;28;21059;-86
2023/07/09 15:45:45;;;;;;;4.93;3.67;;;;;;;;;;10495261;28;20060;-81
2023/07/09 15:50:46;;;;;;;4.72;3.65;;;;;;;;;;10523983;28;20029;-88
2023/07/09 15:55:46;;;;;;;5.80;4.47;;;;;;;;;;10479182;22;20561;-85
2023/07/09 16:00:46;;;;;;;5.47;4.35;;;;;;;;;;10436047;28;20033;-88
2023/07/09 16:05:47;;;;;;;4.95;3.72;;;;;;;;;;10422763;28;20091;-84
2023/07/09 16:10:47;;;;;;;5.13;4.30;;;;;;;;;;10425859;28;20021;-83
2023/07/09 16:15:48;;;;;;;6.50;4.50;;;;;;;;;;10408129;28;20037;-83
2023/07/09 16:20:49;;;;;;;6.50;4.47;;;;;;;;;;10425415;28;20287;-85
2023/07/09 16:25:50;;;;;;;5.95;4.22;;;;;;;;;;10424810;28;20053;-73
2023/07/09 16:30:51;;;;;;;7.37;4.23;;;;;;;;;;10415313;28;20539;-74
2023/07/09 16:35:53;;;;;;;6.25;3.75;;;;;;;;;;10414071;28;20284;-75
2023/07/09 16:40:54;;;;;;;5.32;3.40;;;;;;;;;;10413669;28;20639;-76
2023/07/09 16:45:54;;;;;;;4.87;3.50;;;;;;;;;;10416076;28;20041;-77
2023/07/09 16:50:55;;;;;;;5.43;4.00;;;;;;;;;;10425184;28;20037;-78
2023/07/09 16:55:55;;;;;;;4.63;3.63;;;;;;;;;;10432623;28;20025;-82
2023/07/09 17:00:58;;;;;;;5.82;4.70;;;;;;;;;;10420834;28;20033;-82
2023/07/09 17:06:02;;;;;;;6.63;4.53;;;;;;;;;;10441011;28;20040;-85
2023/07/09 17:11:03;;;;;;;7.13;5.03;;;;;;;;;;10416146;28;20040;-86
2023/07/09 17:16:03;;;;;;;6.28;4.70;;;;;;;;;;10439846;28;20037;-82
2023/07/09 17:21:04;;;;;;;;;;;;;;;;;;10437237;28;20037;-83
2023/07/09 17:26:08;;;;;;;6.63;4.37;;;;;;;;;;10433109;28;20667;-85
2023/07/09 17:31:09;;;;;;;7.15;5.15;;;;;;;;;;10439825;28;20303;-86
2023/07/09 17:36:13;;;;;;;6.90;5.68;;;;;;;;;;10440736;28;20044;-83
2023/07/09 17:41:13;;;;;;;6.55;4.13;;;;;;;;;;10436583;28;20029;-82
2023/07/09 17:46:14;;;;;;;;;;;;;;;;;;10429863;28;20041;-84
2023/07/09 17:51:14;;;;;;;6.63;5.30;;;;;;;;;;10436237;28;20660;-84
2023/07/09 17:56:14;;;;;;;;;;;;;;;;;;10437641;28;20094;-82
2023/07/09 18:01:15;;;;;;;6.40;4.93;;;;;;;;;;10436847;28;20089;-83
2023/07/09 18:06:20;;;;;;;7.17;5.40;;;;;;;;;;10437402;28;20040;-87
2023/07/09 18:11:31;;;;;;;6.72;5.22;;;;;;;;;;10453807;28;20025;-84
2023/07/09 18:16:35;;;;;;;5.25;4.50;;;;;;;;;;10438769;28;20088;-82
2023/07/09 18:21:36;;;;;;;6.47;4.30;;;;;;;;;;10442630;28;20124;-84
2023/07/09 18:26:37;;;;;;;;;;;;;;;;;;10437791;28;20049;-83
2023/07/09 18:31:37;;;;;;;6.63;4.78;;;;;;;;;;10443424;28;19916;-83
2023/07/09 18:36:38;;;;;;;7.30;5.00;;;;;;;;;;10446618;28;20034;-84
2023/07/09 18:41:38;;;;;;;8.27;5.97;;;;;;;;;;10468026;28;20025;-83
2023/07/09 18:46:38;;;;;;;7.83;6.47;;;;;;;;;;10485197;28;20059;-82
2023/07/09 18:51:39;;;;;;;9.43;6.83;;;;;;;;;;10445461;28;20043;-84
2023/07/09 18:56:43;;;;;;;5.65;4.80;;;;;;;;;;10428588;28;20036;-83
2023/07/09 19:01:45;;;;;;;6.00;4.50;;;;;;;;;;10434822;28;20045;-81
2023/07/09 19:06:47;;;;;;;7.30;4.80;;;;;;;;;;10437612;28;20049;-83
2023/07/09 19:11:49;;;;;;;7.78;4.93;;;;;;;;;;10433765;28;20136;-82
2023/07/09 19:16:49;;;;;;;;;;;;;;;;;;10418537;28;20037;-82
2023/07/09 19:21:51;;;;;;;6.13;4.47;;;;;;;;;;10431027;28;20000;-85
2023/07/09 19:26:52;;;;;;;6.05;4.45;;;;;;;;;;10436815;28;20040;-83
2023/07/09 19:31:58;;;;;;;6.45;4.78;;;;;;;;;;10434008;28;20029;-83
2023/07/09 19:36:59;;;;;;;6.60;5.43;;;;;;;;;;10426751;28;20062;-83
2023/07/09 19:42:17;;;;;;;8.40;5.82;;;;;;;;;;10428293;28;20029;-84
2023/07/09 19:47:19;;;;;;;25.30;20.67;;;;;;;;;;10402507;28;20388;-80
2023/07/09 19:52:19;;;;;;;15.15;12.73;;;;;;;;;;10423232;28;20074;-85
2023/07/09 19:57:19;;;;;;;10.50;9.40;;;;;;;;;;10438072;28;20043;-80
2023/07/09 20:02:21;;;;;;;8.50;7.30;;;;;;;;;;10411497;28;20044;-80
2023/07/09 20:07:21;;;;;;;;;;;;;;;;;;10417283;28;20037;-79
2023/07/09 20:12:25;;;;;;;7.25;6.35;;;;;;;;;;10431546;28;20361;-80
2023/07/09 20:17:26;;;;;;;9.35;7.15;;;;;;;;;;10425239;28;20114;-75
2023/07/09 20:22:27;;;;;;;7.80;6.07;;;;;;;;;;10421968;28;20564;-75
2023/07/09 20:27:28;;;;;;;8.05;7.00;;;;;;;;;;10427536;28;20049;-77
2023/07/09 20:32:28;;;;;;;8.57;7.10;;;;;;;;;;10427160;28;20025;-79
2023/07/09 20:37:28;;;;;;;8.43;7.33;;;;;;;;;;10428510;28;20103;-76
2023/07/09 20:42:30;;;;;;;8.53;6.97;;;;;;;;;;10424696;28;20037;-78
2023/07/09 20:47:30;;;;;;;7.82;7.10;;;;;;;;;;10406008;28;20048;-76
2023/07/09 20:52:31;;;;;;;7.77;6.97;;;;;;;;;;10422606;28;20055;-78
2023/07/09 20:57:33;;;;;;;9.20;8.23;;;;;;;;;;10422181;28;20133;-75
2023/07/09 21:02:33;;;;;;;9.52;7.90;;;;;;;;;;10405149;28;20402;-76
2023/07/09 21:07:33;;;;;;;9.50;8.15;;;;;;;;;;10420752;28;20033;-77
2023/07/09 21:12:34;;;;;;;9.03;6.93;;;;;;;;;;10424077;28;20499;-74
2023/07/09 21:17:34;;;;;;;9.43;7.53;;;;;;;;;;10422795;28;20039;-77
2023/07/09 21:22:35;;;;;;;9.40;7.20;;;;;;;;;;10422609;28;20496;-75
2023/07/09 21:27:35;;;;;;;10.35;6.95;;;;;;;;;;10421424;28;20500;-77
2023/07/09 21:32:36;;;;;;;9.93;7.80;;;;;;;;;;10418479;28;20143;-76
2023/07/09 21:37:36;;;;;;;9.82;8.13;;;;;;;;;;10420631;28;20047;-75
2023/07/09 21:42:37;;;;;;;8.77;7.30;;;;;;;;;;10423331;28;20037;-77
2023/07/09 21:47:37;;;;;;;7.75;6.95;;;;;;;;;;10422324;28;20071;-73
2023/07/09 21:52:41;;;;;;;8.05;6.63;;;;;;;;;;10421234;28;20732;-73
2023/07/09 21:57:41;;;;;;;8.13;7.00;;;;;;;;;;10426250;28;20114;-75
2023/07/09 22:02:42;;;;;;;7.80;6.57;;;;;;;;;;10427233;28;20041;-74
2023/07/09 22:07:43;;;;;;;6.93;6.22;;;;;;;;;;10411577;28;20076;-74
2023/07/09 22:12:46;;;;;;;7.97;7.20;;;;;;;;;;10428007;28;20037;-73
2023/07/09 22:17:48;;;;;;;9.50;7.85;;;;;;;;;;10424576;28;20065;-76
2023/07/09 22:22:51;;;;;;;8.00;7.20;;;;;;;;;;10424548;28;20033;-76
2023/07/09 22:27:52;;;;;;;8.35;7.25;;;;;;;;;;10427599;28;20052;-76
2023/07/09 22:32:56;;;;;;;11.00;8.27;;;;;;;;;;10427885;28;20713;-79
2023/07/09 22:37:57;;;;;;;9.02;7.50;;;;;;;;;;10429266;28;20065;-73
2023/07/09 22:42:57;;;;;;;8.50;7.60;;;;;;;;;;10427617;28;20043;-75
2023/07/09 22:47:59;;;;;;;8.35;7.53;;;;;;;;;;10402060;28;20056;-75
2023/07/09 22:52:59;;;;;;;9.05;7.18;;;;;;;;;;10417833;28;20041;-75
2023/07/09 22:58:01;;;;;;;8.27;7.15;;;;;;;;;;10432718;28;20095;-82
2023/07/09 23:03:09;;;;;;;9.50;8.00;;;;;;;;;;10443913;28;20044;-75
2023/07/09 23:08:17;;;;;;;8.38;7.47;;;;;;;;;;10435209;28;20583;-77
2023/07/09 23:13:17;;;;;;;7.70;7.00;;;;;;;;;;10434572;28;20039;-78
2023/07/09 23:18:20;;;;;;;8.27;7.25;;;;;;;;;;10429584;28;20388;-75
2023/07/09 23:23:23;;;;;;;;;;;;;;;;;;10414933;28;20036;-79
2023/07/09 23:28:23;;;;;;;;;;;;;;;;;;10433199;28;19979;-81
2023/07/09 23:33:28;;;;;;;8.68;6.55;;;;;;;;;;10430789;28;19923;-77
2023/07/09 23:38:30;;;;;;;7.43;6.72;;;;;;;;;;10429545;28;20433;-78
2023/07/09 23:43:32;;;;;;;;;;;;;;;;;;10427192;28;20119;-75
2023/07/09 23:48:32;;;;;;;7.68;6.88;;;;;;;;;;10427415;28;19925;-76
2023/07/09 23:53:33;;;;;;;9.23;7.40;;;;;;;;;;10424044;28;20025;-76
2023/07/09 23:58:35;;;;;;;7.97;7.18;;;;;;;;;;10424401;28;20524;-75
